sensor_id;sensor_type;location;lat;lon;timestamp;pressure;altitude;pressure_sealevel;temperature;humidity
72370;BME280;60343;-32.030;115.880;2022-11-20T00:01:12;102131.31;;;21.47;50.46
72370;BME280;60343;-32.030;115.880;2022-11-20T00:03:38;102136.53;;;21.28;50.18
72370;BME280;60343;-32.030;115.880;2022-11-20T00:06:08;102129.41;;;21.34;50.78
72370;BME280;60343;-32.030;115.880;2022-11-20T00:08:36;102133.81;;;21.42;49.75
72370;BME280;60343;-32.030;115.880;2022-11-20T00:11:05;102137.06;;;21.83;50.49
72370;BME280;60343;-32.030;115.880;2022-11-20T00:13:32;102141.28;;;21.86;48.99
72370;BME280;60343;-32.030;115.880;2022-11-20T00:16:00;102141.97;;;21.55;48.75
72370;BME280;60343;-32.030;115.880;2022-11-20T00:18:34;102144.63;;;21.94;49.46
72370;BME280;60343;-32.030;115.880;2022-11-20T00:21:02;102144.16;;;22.10;47.67
72370;BME280;60343;-32.030;115.880;2022-11-20T00:23:30;102132.31;;;22.30;47.47
72370;BME280;60343;-32.030;115.880;2022-11-20T00:26:02;102142.03;;;22.57;46.85
72370;BME280;60343;-32.030;115.880;2022-11-20T00:28:30;102137.25;;;22.52;46.97
72370;BME280;60343;-32.030;115.880;2022-11-20T00:31:02;102143.53;;;22.53;46.79
72370;BME280;60343;-32.030;115.880;2022-11-20T00:33:36;102145.44;;;22.46;47.05
72370;BME280;60343;-32.030;115.880;2022-11-20T00:36:05;102149.50;;;22.75;47.48
72370;BME280;60343;-32.030;115.880;2022-11-20T00:38:33;102149.66;;;22.86;44.75
72370;BME280;60343;-32.030;115.880;2022-11-20T00:41:03;102157.84;;;22.86;45.80
72370;BME280;60343;-32.030;115.880;2022-11-20T00:43:33;102159.19;;;23.02;45.13
72370;BME280;60343;-32.030;115.880;2022-11-20T00:46:03;102159.41;;;23.00;44.49
72370;BME280;60343;-32.030;115.880;2022-11-20T00:48:36;102167.38;;;23.02;45.29
72370;BME280;60343;-32.030;115.880;2022-11-20T00:51:04;102157.31;;;23.27;44.83
72370;BME280;60343;-32.030;115.880;2022-11-20T00:53:32;102157.31;;;23.27;44.72
72370;BME280;60343;-32.030;115.880;2022-11-20T00:56:01;102158.16;;;23.52;44.37
72370;BME280;60343;-32.030;115.880;2022-11-20T00:58:31;102164.72;;;23.88;44.12
72370;BME280;60343;-32.030;115.880;2022-11-20T01:01:02;102162.06;;;24.00;44.41
72370;BME280;60343;-32.030;115.880;2022-11-20T01:03:38;102163.31;;;24.22;42.75
72370;BME280;60343;-32.030;115.880;2022-11-20T01:06:07;102153.34;;;24.27;42.62
72370;BME280;60343;-32.030;115.880;2022-11-20T01:08:36;102159.94;;;24.38;42.58
72370;BME280;60343;-32.030;115.880;2022-11-20T01:11:05;102151.91;;;24.55;42.58
72370;BME280;60343;-32.030;115.880;2022-11-20T01:13:34;102154.03;;;24.53;40.97
72370;BME280;60343;-32.030;115.880;2022-11-20T01:16:03;102147.25;;;24.25;41.19
72370;BME280;60343;-32.030;115.880;2022-11-20T01:18:38;102149.00;;;23.83;42.33
72370;BME280;60343;-32.030;115.880;2022-11-20T01:21:07;102147.25;;;23.89;41.26
72370;BME280;60343;-32.030;115.880;2022-11-20T01:23:37;102148.38;;;24.36;41.97
72370;BME280;60343;-32.030;115.880;2022-11-20T01:26:06;102146.88;;;24.22;42.07
72370;BME280;60343;-32.030;115.880;2022-11-20T01:28:35;102144.97;;;24.04;42.03
72370;BME280;60343;-32.030;115.880;2022-11-20T01:31:02;102142.44;;;24.39;41.21
72370;BME280;60343;-32.030;115.880;2022-11-20T01:33:44;102142.25;;;24.52;41.02
72370;BME280;60343;-32.030;115.880;2022-11-20T01:36:13;102134.38;;;24.86;41.78
72370;BME280;60343;-32.030;115.880;2022-11-20T01:38:41;102134.22;;;25.10;40.11
72370;BME280;60343;-32.030;115.880;2022-11-20T01:41:10;102129.47;;;25.52;39.78
72370;BME280;60343;-32.030;115.880;2022-11-20T01:43:38;102130.06;;;25.66;37.36
72370;BME280;60343;-32.030;115.880;2022-11-20T01:46:14;102126.94;;;25.51;38.71
72370;BME280;60343;-32.030;115.880;2022-11-20T01:48:51;102127.31;;;25.78;38.27
72370;BME280;60343;-32.030;115.880;2022-11-20T01:51:25;102130.84;;;24.97;40.54
72370;BME280;60343;-32.030;115.880;2022-11-20T01:53:57;102124.81;;;24.76;39.94
72370;BME280;60343;-32.030;115.880;2022-11-20T01:56:28;102132.44;;;25.16;39.95
72370;BME280;60343;-32.030;115.880;2022-11-20T01:58:59;102130.94;;;24.19;42.24
72370;BME280;60343;-32.030;115.880;2022-11-20T02:01:28;102132.13;;;23.68;42.70
72370;BME280;60343;-32.030;115.880;2022-11-20T02:04:02;102126.09;;;23.17;43.77
72370;BME280;60343;-32.030;115.880;2022-11-20T02:06:32;102121.59;;;22.66;44.87
72370;BME280;60343;-32.030;115.880;2022-11-20T02:09:02;102125.16;;;22.35;45.03
72370;BME280;60343;-32.030;115.880;2022-11-20T02:11:31;102127.16;;;22.08;44.78
72370;BME280;60343;-32.030;115.880;2022-11-20T02:13:59;102123.63;;;21.88;46.04
72370;BME280;60343;-32.030;115.880;2022-11-20T02:16:30;102131.63;;;21.83;46.16
72370;BME280;60343;-32.030;115.880;2022-11-20T02:19:06;102124.25;;;22.48;44.77
72370;BME280;60343;-32.030;115.880;2022-11-20T02:21:39;102121.53;;;22.48;45.52
72370;BME280;60343;-32.030;115.880;2022-11-20T02:24:15;102118.44;;;22.38;44.90
72370;BME280;60343;-32.030;115.880;2022-11-20T02:26:51;102119.97;;;22.20;45.74
72370;BME280;60343;-32.030;115.880;2022-11-20T02:29:24;102112.09;;;21.99;44.98
72370;BME280;60343;-32.030;115.880;2022-11-20T02:31:55;102115.03;;;21.91;46.79
72370;BME280;60343;-32.030;115.880;2022-11-20T02:34:24;102106.63;;;21.99;45.94
72370;BME280;60343;-32.030;115.880;2022-11-20T02:36:53;102110.84;;;22.02;45.97
72370;BME280;60343;-32.030;115.880;2022-11-20T02:39:28;102109.16;;;21.94;46.58
72370;BME280;60343;-32.030;115.880;2022-11-20T02:41:56;102102.00;;;21.93;45.51
72370;BME280;60343;-32.030;115.880;2022-11-20T02:44:24;102112.13;;;21.86;45.91
72370;BME280;60343;-32.030;115.880;2022-11-20T02:46:52;102105.16;;;22.48;45.30
72370;BME280;60343;-32.030;115.880;2022-11-20T02:49:19;102104.84;;;23.62;43.20
72370;BME280;60343;-32.030;115.880;2022-11-20T02:51:47;102098.66;;;24.39;40.95
72370;BME280;60343;-32.030;115.880;2022-11-20T02:54:15;102094.81;;;24.82;41.45
72370;BME280;60343;-32.030;115.880;2022-11-20T02:56:48;102099.19;;;24.89;39.90
72370;BME280;60343;-32.030;115.880;2022-11-20T02:59:16;102098.84;;;25.32;37.29
72370;BME280;60343;-32.030;115.880;2022-11-20T03:01:43;102086.19;;;24.96;37.76
72370;BME280;60343;-32.030;115.880;2022-11-20T03:04:11;102087.56;;;24.34;39.24
72370;BME280;60343;-32.030;115.880;2022-11-20T03:06:39;102088.97;;;23.88;40.38
72370;BME280;60343;-32.030;115.880;2022-11-20T03:09:06;102088.91;;;23.59;41.37
72370;BME280;60343;-32.030;115.880;2022-11-20T03:11:34;102085.34;;;23.58;41.33
72370;BME280;60343;-32.030;115.880;2022-11-20T03:14:08;102079.53;;;23.84;40.76
72370;BME280;60343;-32.030;115.880;2022-11-20T03:16:36;102074.31;;;23.65;40.98
72370;BME280;60343;-32.030;115.880;2022-11-20T03:19:04;102080.59;;;23.29;41.23
72370;BME280;60343;-32.030;115.880;2022-11-20T03:21:33;102072.28;;;23.35;42.28
72370;BME280;60343;-32.030;115.880;2022-11-20T03:24:01;102069.94;;;24.12;40.49
72370;BME280;60343;-32.030;115.880;2022-11-20T03:26:29;102067.28;;;24.05;39.12
72370;BME280;60343;-32.030;115.880;2022-11-20T03:28:58;102063.75;;;23.86;39.25
72370;BME280;60343;-32.030;115.880;2022-11-20T03:31:33;102060.34;;;23.73;40.32
72370;BME280;60343;-32.030;115.880;2022-11-20T03:34:01;102059.75;;;23.52;40.83
72370;BME280;60343;-32.030;115.880;2022-11-20T03:36:29;102056.25;;;23.64;41.64
72370;BME280;60343;-32.030;115.880;2022-11-20T03:38:57;102054.53;;;24.17;38.76
72370;BME280;60343;-32.030;115.880;2022-11-20T03:50:26;102018.59;;;26.00;36.20
72370;BME280;60343;-32.030;115.880;2022-11-20T03:52:53;102021.47;;;25.93;36.21
72370;BME280;60343;-32.030;115.880;2022-11-20T03:55:22;102016.59;;;26.12;37.27
72370;BME280;60343;-32.030;115.880;2022-11-20T03:57:50;102012.66;;;26.36;34.06
72370;BME280;60343;-32.030;115.880;2022-11-20T04:00:18;102015.78;;;26.40;34.85
72370;BME280;60343;-32.030;115.880;2022-11-20T04:02:45;102007.44;;;26.52;35.07
72370;BME280;60343;-32.030;115.880;2022-11-20T04:05:13;102008.19;;;26.64;33.97
72370;BME280;60343;-32.030;115.880;2022-11-20T04:07:47;102008.03;;;26.70;33.77
72370;BME280;60343;-32.030;115.880;2022-11-20T04:10:15;102000.72;;;26.76;34.98
72370;BME280;60343;-32.030;115.880;2022-11-20T04:12:43;101996.56;;;26.90;34.72
72370;BME280;60343;-32.030;115.880;2022-11-20T04:15:11;101989.41;;;26.56;33.45
72370;BME280;60343;-32.030;115.880;2022-11-20T04:17:38;101995.53;;;26.29;34.59
72370;BME280;60343;-32.030;115.880;2022-11-20T04:20:07;101985.53;;;26.23;35.48
72370;BME280;60343;-32.030;115.880;2022-11-20T04:22:35;101981.66;;;26.08;35.29
72370;BME280;60343;-32.030;115.880;2022-11-20T04:25:08;101981.28;;;25.87;35.82
72370;BME280;60343;-32.030;115.880;2022-11-20T04:27:36;101983.97;;;25.71;36.72
72370;BME280;60343;-32.030;115.880;2022-11-20T04:30:04;101978.59;;;26.04;35.80
72370;BME280;60343;-32.030;115.880;2022-11-20T04:32:32;101977.97;;;26.02;35.48
72370;BME280;60343;-32.030;115.880;2022-11-20T04:34:59;101970.34;;;26.49;33.25
72370;BME280;60343;-32.030;115.880;2022-11-20T04:37:27;101964.81;;;26.82;33.60
72370;BME280;60343;-32.030;115.880;2022-11-20T04:39:55;101968.72;;;27.03;32.52
72370;BME280;60343;-32.030;115.880;2022-11-20T04:42:28;101974.38;;;26.97;31.68
72370;BME280;60343;-32.030;115.880;2022-11-20T04:44:55;101971.22;;;26.71;33.83
72370;BME280;60343;-32.030;115.880;2022-11-20T04:47:23;101964.31;;;26.85;33.38
72370;BME280;60343;-32.030;115.880;2022-11-20T04:49:51;101962.69;;;27.06;33.62
72370;BME280;60343;-32.030;115.880;2022-11-20T04:52:19;101954.28;;;27.35;33.86
72370;BME280;60343;-32.030;115.880;2022-11-20T04:54:46;101955.97;;;26.97;32.92
72370;BME280;60343;-32.030;115.880;2022-11-20T04:57:14;101953.84;;;26.49;33.32
72370;BME280;60343;-32.030;115.880;2022-11-20T04:59:50;101950.56;;;26.19;34.18
72370;BME280;60343;-32.030;115.880;2022-11-20T05:02:21;101946.72;;;26.03;33.54
72370;BME280;60343;-32.030;115.880;2022-11-20T05:04:49;101949.28;;;26.38;33.75
72370;BME280;60343;-32.030;115.880;2022-11-20T05:07:17;101943.47;;;26.34;33.72
72370;BME280;60343;-32.030;115.880;2022-11-20T05:09:45;101944.47;;;25.72;34.86
72370;BME280;60343;-32.030;115.880;2022-11-20T05:12:12;101938.91;;;25.15;35.33
72370;BME280;60343;-32.030;115.880;2022-11-20T05:14:40;101944.44;;;24.92;36.14
72370;BME280;60343;-32.030;115.880;2022-11-20T05:17:13;101939.34;;;25.75;34.69
72370;BME280;60343;-32.030;115.880;2022-11-20T05:19:41;101934.38;;;26.51;36.76
72370;BME280;60343;-32.030;115.880;2022-11-20T05:22:08;101928.34;;;26.87;38.58
72370;BME280;60343;-32.030;115.880;2022-11-20T05:24:36;101918.41;;;27.24;37.29
72370;BME280;60343;-32.030;115.880;2022-11-20T05:27:04;101915.28;;;27.16;36.72
72370;BME280;60343;-32.030;115.880;2022-11-20T05:29:31;101919.47;;;27.67;36.79
72370;BME280;60343;-32.030;115.880;2022-11-20T05:31:59;101915.00;;;27.39;36.24
72370;BME280;60343;-32.030;115.880;2022-11-20T05:34:32;101920.50;;;27.17;37.04
72370;BME280;60343;-32.030;115.880;2022-11-20T05:37:00;101922.28;;;26.68;38.57
72370;BME280;60343;-32.030;115.880;2022-11-20T05:39:27;101916.72;;;26.63;39.53
72370;BME280;60343;-32.030;115.880;2022-11-20T05:41:55;101917.34;;;26.87;38.09
72370;BME280;60343;-32.030;115.880;2022-11-20T05:44:48;101922.72;;;26.60;39.21
72370;BME280;60343;-32.030;115.880;2022-11-20T05:47:15;101922.03;;;26.70;39.86
72370;BME280;60343;-32.030;115.880;2022-11-20T05:49:48;101906.63;;;26.69;38.98
72370;BME280;60343;-32.030;115.880;2022-11-20T05:52:16;101909.31;;;26.64;38.31
72370;BME280;60343;-32.030;115.880;2022-11-20T05:54:44;101914.78;;;26.80;38.24
72370;BME280;60343;-32.030;115.880;2022-11-20T05:57:11;101910.91;;;26.60;38.59
72370;BME280;60343;-32.030;115.880;2022-11-20T05:59:39;101907.41;;;26.86;37.92
72370;BME280;60343;-32.030;115.880;2022-11-20T06:02:07;101899.22;;;27.08;37.40
72370;BME280;60343;-32.030;115.880;2022-11-20T06:04:36;101899.28;;;26.74;37.81
72370;BME280;60343;-32.030;115.880;2022-11-20T06:07:12;101889.00;;;27.03;38.66
72370;BME280;60343;-32.030;115.880;2022-11-20T06:09:39;101902.06;;;26.96;37.64
72370;BME280;60343;-32.030;115.880;2022-11-20T06:12:07;101897.31;;;27.08;37.35
72370;BME280;60343;-32.030;115.880;2022-11-20T06:14:35;101897.09;;;27.37;36.83
72370;BME280;60343;-32.030;115.880;2022-11-20T06:17:03;101894.34;;;27.37;35.43
72370;BME280;60343;-32.030;115.880;2022-11-20T06:19:30;101891.09;;;27.61;36.01
72370;BME280;60343;-32.030;115.880;2022-11-20T06:21:58;101897.25;;;27.73;35.80
72370;BME280;60343;-32.030;115.880;2022-11-20T06:24:31;101890.25;;;27.39;35.85
72370;BME280;60343;-32.030;115.880;2022-11-20T06:26:59;101898.97;;;27.53;35.63
72370;BME280;60343;-32.030;115.880;2022-11-20T06:29:27;101903.63;;;27.30;36.23
72370;BME280;60343;-32.030;115.880;2022-11-20T06:31:54;101892.53;;;27.47;36.10
72370;BME280;60343;-32.030;115.880;2022-11-20T06:34:22;101890.50;;;27.38;35.38
72370;BME280;60343;-32.030;115.880;2022-11-20T06:36:49;101891.63;;;27.42;36.37
72370;BME280;60343;-32.030;115.880;2022-11-20T06:39:17;101899.84;;;27.37;35.36
72370;BME280;60343;-32.030;115.880;2022-11-20T06:41:50;101886.13;;;27.42;36.20
72370;BME280;60343;-32.030;115.880;2022-11-20T06:44:18;101891.59;;;27.37;36.05
72370;BME280;60343;-32.030;115.880;2022-11-20T06:46:46;101871.16;;;27.06;36.44
72370;BME280;60343;-32.030;115.880;2022-11-20T06:49:13;101880.88;;;27.13;36.77
72370;BME280;60343;-32.030;115.880;2022-11-20T06:51:41;101879.53;;;26.94;36.88
72370;BME280;60343;-32.030;115.880;2022-11-20T06:54:09;101886.50;;;26.63;37.15
72370;BME280;60343;-32.030;115.880;2022-11-20T06:56:36;101880.03;;;26.91;37.82
72370;BME280;60343;-32.030;115.880;2022-11-20T06:59:11;101882.75;;;26.69;37.84
72370;BME280;60343;-32.030;115.880;2022-11-20T07:01:38;101872.88;;;27.12;37.79
72370;BME280;60343;-32.030;115.880;2022-11-20T07:04:06;101879.41;;;27.06;37.24
72370;BME280;60343;-32.030;115.880;2022-11-20T07:06:34;101881.81;;;27.24;37.43
72370;BME280;60343;-32.030;115.880;2022-11-20T07:09:02;101878.16;;;26.75;37.38
72370;BME280;60343;-32.030;115.880;2022-11-20T07:11:30;101872.44;;;26.60;37.63
72370;BME280;60343;-32.030;115.880;2022-11-20T07:13:58;101882.41;;;27.04;37.00
72370;BME280;60343;-32.030;115.880;2022-11-20T07:16:31;101872.38;;;26.93;36.20
72370;BME280;60343;-32.030;115.880;2022-11-20T07:18:59;101871.28;;;26.56;37.40
72370;BME280;60343;-32.030;115.880;2022-11-20T07:21:30;101869.50;;;26.66;37.64
72370;BME280;60343;-32.030;115.880;2022-11-20T07:23:58;101874.94;;;26.83;37.17
72370;BME280;60343;-32.030;115.880;2022-11-20T07:26:26;101874.84;;;26.56;37.58
72370;BME280;60343;-32.030;115.880;2022-11-20T07:28:53;101870.31;;;26.28;37.84
72370;BME280;60343;-32.030;115.880;2022-11-20T07:31:21;101869.25;;;26.29;38.07
72370;BME280;60343;-32.030;115.880;2022-11-20T07:33:57;101866.41;;;26.24;38.64
72370;BME280;60343;-32.030;115.880;2022-11-20T07:36:24;101871.44;;;26.66;37.52
72370;BME280;60343;-32.030;115.880;2022-11-20T07:38:52;101871.50;;;26.21;38.60
72370;BME280;60343;-32.030;115.880;2022-11-20T07:41:20;101866.41;;;26.24;39.00
72370;BME280;60343;-32.030;115.880;2022-11-20T07:43:47;101868.41;;;26.29;38.62
72370;BME280;60343;-32.030;115.880;2022-11-20T07:46:15;101858.25;;;26.29;38.70
72370;BME280;60343;-32.030;115.880;2022-11-20T07:48:42;101857.91;;;26.26;38.43
72370;BME280;60343;-32.030;115.880;2022-11-20T07:51:16;101859.50;;;26.38;38.76
72370;BME280;60343;-32.030;115.880;2022-11-20T07:53:43;101860.88;;;26.08;38.80
72370;BME280;60343;-32.030;115.880;2022-11-20T07:56:11;101859.22;;;25.45;39.83
72370;BME280;60343;-32.030;115.880;2022-11-20T07:58:39;101853.44;;;25.30;39.81
72370;BME280;60343;-32.030;115.880;2022-11-20T08:01:07;101854.31;;;25.18;40.51
72370;BME280;60343;-32.030;115.880;2022-11-20T08:03:35;101849.78;;;25.41;40.64
72370;BME280;60343;-32.030;115.880;2022-11-20T08:06:03;101849.88;;;25.46;40.21
72370;BME280;60343;-32.030;115.880;2022-11-20T08:08:36;101843.78;;;25.55;39.97
72370;BME280;60343;-32.030;115.880;2022-11-20T08:11:04;101846.81;;;25.42;40.75
72370;BME280;60343;-32.030;115.880;2022-11-20T08:13:32;101840.72;;;25.40;40.84
72370;BME280;60343;-32.030;115.880;2022-11-20T08:16:00;101851.50;;;25.30;40.91
72370;BME280;60343;-32.030;115.880;2022-11-20T08:18:28;101845.34;;;24.95;41.22
72370;BME280;60343;-32.030;115.880;2022-11-20T08:20:57;101845.34;;;24.95;41.42
72370;BME280;60343;-32.030;115.880;2022-11-20T08:23:25;101839.03;;;24.94;41.65
72370;BME280;60343;-32.030;115.880;2022-11-20T08:25:58;101846.13;;;24.95;41.58
72370;BME280;60343;-32.030;115.880;2022-11-20T08:28:26;101840.81;;;24.65;42.97
72370;BME280;60343;-32.030;115.880;2022-11-20T08:30:58;101838.38;;;24.29;43.69
72370;BME280;60343;-32.030;115.880;2022-11-20T08:33:26;101845.91;;;24.15;44.16
72370;BME280;60343;-32.030;115.880;2022-11-20T08:35:58;101841.41;;;24.09;43.59
72370;BME280;60343;-32.030;115.880;2022-11-20T08:38:26;101837.91;;;23.90;43.92
72370;BME280;60343;-32.030;115.880;2022-11-20T08:40:59;101845.66;;;23.82;44.10
72370;BME280;60343;-32.030;115.880;2022-11-20T08:43:27;101834.84;;;23.99;43.30
72370;BME280;60343;-32.030;115.880;2022-11-20T08:45:57;101837.00;;;23.97;43.18
72370;BME280;60343;-32.030;115.880;2022-11-20T08:48:24;101824.97;;;23.86;44.24
72370;BME280;60343;-32.030;115.880;2022-11-20T08:50:52;101831.22;;;23.75;44.56
72370;BME280;60343;-32.030;115.880;2022-11-20T08:53:20;101830.75;;;23.66;44.92
72370;BME280;60343;-32.030;115.880;2022-11-20T08:55:47;101832.28;;;23.44;45.54
72370;BME280;60343;-32.030;115.880;2022-11-20T08:58:20;101840.09;;;23.29;45.81
72370;BME280;60343;-32.030;115.880;2022-11-20T09:00:48;101828.22;;;23.35;46.13
72370;BME280;60343;-32.030;115.880;2022-11-20T09:03:16;101826.19;;;23.30;45.87
72370;BME280;60343;-32.030;115.880;2022-11-20T09:05:43;101837.31;;;23.17;46.31
72370;BME280;60343;-32.030;115.880;2022-11-20T09:08:11;101828.03;;;22.88;46.78
72370;BME280;60343;-32.030;115.880;2022-11-20T09:10:39;101825.16;;;22.58;47.65
72370;BME280;60343;-32.030;115.880;2022-11-20T09:13:07;101831.75;;;22.33;48.08
72370;BME280;60343;-32.030;115.880;2022-11-20T09:15:40;101835.06;;;22.16;48.38
72370;BME280;60343;-32.030;115.880;2022-11-20T09:18:08;101837.16;;;22.14;48.86
72370;BME280;60343;-32.030;115.880;2022-11-20T09:20:36;101831.38;;;22.04;48.77
72370;BME280;60343;-32.030;115.880;2022-11-20T09:23:03;101832.38;;;22.10;49.82
72370;BME280;60343;-32.030;115.880;2022-11-20T09:25:31;101832.66;;;22.02;50.01
72370;BME280;60343;-32.030;115.880;2022-11-20T09:27:59;101837.50;;;22.00;48.85
72370;BME280;60343;-32.030;115.880;2022-11-20T09:30:28;101826.22;;;21.96;48.90
72370;BME280;60343;-32.030;115.880;2022-11-20T09:33:02;101833.97;;;21.93;49.30
72370;BME280;60343;-32.030;115.880;2022-11-20T09:35:31;101838.59;;;21.92;49.99
72370;BME280;60343;-32.030;115.880;2022-11-20T09:38:03;101837.59;;;21.87;49.52
72370;BME280;60343;-32.030;115.880;2022-11-20T09:40:31;101840.34;;;21.80;49.54
72370;BME280;60343;-32.030;115.880;2022-11-20T09:43:01;101839.16;;;21.69;49.36
72370;BME280;60343;-32.030;115.880;2022-11-20T09:45:41;101849.72;;;21.59;49.68
72370;BME280;60343;-32.030;115.880;2022-11-20T09:48:29;101845.97;;;21.54;50.26
72370;BME280;60343;-32.030;115.880;2022-11-20T09:51:08;101851.53;;;21.40;50.64
72370;BME280;60343;-32.030;115.880;2022-11-20T09:53:53;101848.63;;;21.35;50.80
72370;BME280;60343;-32.030;115.880;2022-11-20T09:56:26;101852.47;;;21.21;51.51
72370;BME280;60343;-32.030;115.880;2022-11-20T09:58:59;101854.59;;;21.06;52.06
72370;BME280;60343;-32.030;115.880;2022-11-20T10:01:33;101861.75;;;21.01;52.49
72370;BME280;60343;-32.030;115.880;2022-11-20T10:04:13;101878.09;;;20.94;53.01
72370;BME280;60343;-32.030;115.880;2022-11-20T10:06:47;101875.81;;;20.84;53.42
72370;BME280;60343;-32.030;115.880;2022-11-20T10:09:25;101879.84;;;20.75;54.24
72370;BME280;60343;-32.030;115.880;2022-11-20T10:12:06;101880.25;;;20.72;54.79
72370;BME280;60343;-32.030;115.880;2022-11-20T10:14:52;101887.41;;;20.67;55.07
72370;BME280;60343;-32.030;115.880;2022-11-20T10:17:33;101890.34;;;20.45;55.60
72370;BME280;60343;-32.030;115.880;2022-11-20T10:20:27;101893.47;;;20.29;55.83
72370;BME280;60343;-32.030;115.880;2022-11-20T10:23:09;101893.69;;;20.21;56.72
72370;BME280;60343;-32.030;115.880;2022-11-20T10:25:48;101889.47;;;20.12;56.95
72370;BME280;60343;-32.030;115.880;2022-11-20T10:28:33;101894.47;;;20.02;57.29
72370;BME280;60343;-32.030;115.880;2022-11-20T10:31:10;101889.47;;;19.99;57.92
72370;BME280;60343;-32.030;115.880;2022-11-20T10:36:12;101886.75;;;19.92;58.30
72370;BME280;60343;-32.030;115.880;2022-11-20T10:39:57;101894.88;;;19.73;59.08
72370;BME280;60343;-32.030;115.880;2022-11-20T10:42:30;101905.28;;;19.62;59.65
72370;BME280;60343;-32.030;115.880;2022-11-20T10:45:11;101899.84;;;19.49;59.94
72370;BME280;60343;-32.030;115.880;2022-11-20T10:47:43;101915.22;;;19.42;60.49
72370;BME280;60343;-32.030;115.880;2022-11-20T10:50:14;101909.34;;;19.25;60.91
72370;BME280;60343;-32.030;115.880;2022-11-20T10:52:52;101910.97;;;19.26;60.46
72370;BME280;60343;-32.030;115.880;2022-11-20T10:55:35;101919.34;;;19.25;60.76
72370;BME280;60343;-32.030;115.880;2022-11-20T10:59:32;101908.88;;;19.22;60.80
72370;BME280;60343;-32.030;115.880;2022-11-20T11:04:18;101921.16;;;19.11;61.17
72370;BME280;60343;-32.030;115.880;2022-11-20T11:06:52;101925.13;;;19.09;61.22
72370;BME280;60343;-32.030;115.880;2022-11-20T11:09:29;101920.25;;;18.98;61.61
72370;BME280;60343;-32.030;115.880;2022-11-20T11:12:07;101928.94;;;18.86;62.27
72370;BME280;60343;-32.030;115.880;2022-11-20T11:14:47;101931.03;;;18.84;62.44
72370;BME280;60343;-32.030;115.880;2022-11-20T11:17:26;101932.66;;;18.79;62.41
72370;BME280;60343;-32.030;115.880;2022-11-20T11:20:17;101933.25;;;18.74;62.62
72370;BME280;60343;-32.030;115.880;2022-11-20T11:22:48;101929.03;;;18.65;63.05
72370;BME280;60343;-32.030;115.880;2022-11-20T11:25:25;101934.06;;;18.68;62.68
72370;BME280;60343;-32.030;115.880;2022-11-20T11:28:00;101940.13;;;18.70;62.56
72370;BME280;60343;-32.030;115.880;2022-11-20T11:30:29;101939.88;;;18.65;62.47
72370;BME280;60343;-32.030;115.880;2022-11-20T11:33:09;101945.66;;;18.56;62.92
72370;BME280;60343;-32.030;115.880;2022-11-20T11:35:45;101948.56;;;18.54;62.93
72370;BME280;60343;-32.030;115.880;2022-11-20T11:38:15;101954.31;;;18.51;63.55
72370;BME280;60343;-32.030;115.880;2022-11-20T11:40:44;101954.53;;;18.50;63.34
72370;BME280;60343;-32.030;115.880;2022-11-20T11:43:26;101951.06;;;18.34;63.77
72370;BME280;60343;-32.030;115.880;2022-11-20T11:45:56;101959.66;;;18.38;63.73
72370;BME280;60343;-32.030;115.880;2022-11-20T11:48:23;101953.78;;;18.34;64.29
72370;BME280;60343;-32.030;115.880;2022-11-20T11:50:51;101961.25;;;18.32;64.40
72370;BME280;60343;-32.030;115.880;2022-11-20T11:53:21;101958.97;;;18.29;64.75
72370;BME280;60343;-32.030;115.880;2022-11-20T11:55:51;101960.16;;;18.27;64.60
72370;BME280;60343;-32.030;115.880;2022-11-20T11:58:39;101962.94;;;18.12;64.78
72370;BME280;60343;-32.030;115.880;2022-11-20T12:01:20;101952.38;;;18.17;65.04
72370;BME280;60343;-32.030;115.880;2022-11-20T12:03:55;101961.47;;;18.10;65.47
72370;BME280;60343;-32.030;115.880;2022-11-20T12:06:27;101967.16;;;17.93;66.33
72370;BME280;60343;-32.030;115.880;2022-11-20T12:08:59;101969.41;;;17.90;65.97
72370;BME280;60343;-32.030;115.880;2022-11-20T12:11:34;101978.75;;;17.87;65.99
72370;BME280;60343;-32.030;115.880;2022-11-20T12:14:13;101973.91;;;17.83;66.46
72370;BME280;60343;-32.030;115.880;2022-11-20T12:16:42;101982.34;;;17.73;66.67
72370;BME280;60343;-32.030;115.880;2022-11-20T12:19:11;101987.88;;;17.65;66.85
72370;BME280;60343;-32.030;115.880;2022-11-20T12:21:48;101983.22;;;17.59;67.01
72370;BME280;60343;-32.030;115.880;2022-11-20T12:24:32;101984.91;;;17.60;67.37
72370;BME280;60343;-32.030;115.880;2022-11-20T12:27:11;101996.63;;;17.52;67.12
72370;BME280;60343;-32.030;115.880;2022-11-20T12:29:56;101990.22;;;17.39;67.55
72370;BME280;60343;-32.030;115.880;2022-11-20T12:35:41;101995.81;;;17.23;68.65
72370;BME280;60343;-32.030;115.880;2022-11-20T12:38:32;101999.19;;;17.25;68.14
72370;BME280;60343;-32.030;115.880;2022-11-20T12:41:08;102008.22;;;17.17;68.34
72370;BME280;60343;-32.030;115.880;2022-11-20T12:43:57;102005.06;;;17.13;68.34
72370;BME280;60343;-32.030;115.880;2022-11-20T12:46:37;102001.78;;;17.03;68.48
72370;BME280;60343;-32.030;115.880;2022-11-20T12:49:18;102001.88;;;17.10;68.47
72370;BME280;60343;-32.030;115.880;2022-11-20T12:57:44;102009.59;;;16.84;68.97
72370;BME280;60343;-32.030;115.880;2022-11-20T13:00:16;102016.63;;;16.70;69.22
72370;BME280;60343;-32.030;115.880;2022-11-20T13:05:57;102015.69;;;16.40;69.76
72370;BME280;60343;-32.030;115.880;2022-11-20T13:08:28;102028.06;;;16.35;70.34